createdAt,value
2022-12-31T00:01:37.716Z,89.01
2022-12-31T00:04:04.158Z,89.52
2022-12-31T00:06:33.079Z,88.73
2022-12-31T00:09:02.385Z,89.66
2022-12-31T00:11:29.833Z,90.02
2022-12-31T00:13:57.547Z,90.07
2022-12-31T00:16:27.014Z,89.59
2022-12-31T00:18:55.905Z,89.53
2022-12-31T00:21:22.350Z,89.54
2022-12-31T00:23:48.703Z,89.95
2022-12-31T00:26:18.526Z,89.65
2022-12-31T00:28:44.717Z,89.97
2022-12-31T00:31:14.568Z,89.43
2022-12-31T00:33:41.710Z,89.62
2022-12-31T00:36:11.718Z,89.51
2022-12-31T00:38:39.683Z,89.47
2022-12-31T00:41:06.937Z,89.78
2022-12-31T00:43:34.408Z,89.96
2022-12-31T00:46:01.588Z,89.92
2022-12-31T00:48:28.248Z,89.79
2022-12-31T00:50:56.107Z,89.89
2022-12-31T00:53:23.157Z,90.04
2022-12-31T00:55:49.613Z,89.75
2022-12-31T00:58:16.197Z,90.05
2022-12-31T01:00:43.425Z,89.63
2022-12-31T01:03:10.139Z,89.53
2022-12-31T01:05:37.478Z,90.14
2022-12-31T01:08:04.947Z,90.11
2022-12-31T01:10:49.576Z,89.82
2022-12-31T01:13:15.878Z,89.67
2022-12-31T01:15:42.321Z,89.51
2022-12-31T01:18:09.034Z,89.87
2022-12-31T01:20:37.436Z,89.42
2022-12-31T01:23:04.499Z,89.69
2022-12-31T01:25:30.889Z,89.52
2022-12-31T01:27:57.238Z,89.99
2022-12-31T01:30:23.474Z,89.71
2022-12-31T01:32:51.079Z,89.51
2022-12-31T01:35:18.355Z,89.51
2022-12-31T01:37:44.567Z,89.59
2022-12-31T01:40:11.016Z,89.74
2022-12-31T01:42:37.533Z,89.52
2022-12-31T01:45:10.131Z,89.52
2022-12-31T01:47:42.164Z,89.68
2022-12-31T01:50:17.561Z,89.70
2022-12-31T01:52:47.423Z,89.40
2022-12-31T01:55:16.072Z,89.50
2022-12-31T01:57:45.678Z,89.71
2022-12-31T02:00:12.641Z,89.31
2022-12-31T02:02:39.152Z,89.71
2022-12-31T02:05:16.497Z,89.58
2022-12-31T02:07:43.598Z,89.35
2022-12-31T02:10:09.853Z,89.04
2022-12-31T02:12:36.324Z,89.29
2022-12-31T02:15:03.035Z,89.25
2022-12-31T02:17:34.850Z,89.08
2022-12-31T02:20:29.226Z,89.18
2022-12-31T02:23:37.240Z,89.29
2022-12-31T02:26:25.256Z,89.05
2022-12-31T02:29:34.222Z,88.75
2022-12-31T02:32:07.216Z,88.72
2022-12-31T02:34:37.388Z,88.57
2022-12-31T02:37:10.018Z,88.48
2022-12-31T02:39:37.801Z,88.52
2022-12-31T02:42:04.180Z,88.29
2022-12-31T02:44:32.898Z,87.90
2022-12-31T02:47:08.167Z,87.74
2022-12-31T02:49:53.031Z,87.63
2022-12-31T02:52:44.169Z,87.04
2022-12-31T02:55:40.540Z,86.88
2022-12-31T02:58:21.990Z,86.62
2022-12-31T03:01:12.987Z,86.50
2022-12-31T03:03:39.897Z,86.10
2022-12-31T03:06:08.881Z,85.72
2022-12-31T03:08:55.520Z,85.63
2022-12-31T03:11:40.592Z,85.57
2022-12-31T03:14:06.813Z,84.96
2022-12-31T03:16:34.244Z,85.02
2022-12-31T03:19:19.582Z,84.94
2022-12-31T03:22:04.662Z,84.70
2022-12-31T03:24:49.392Z,84.64
2022-12-31T03:27:15.590Z,84.48
2022-12-31T03:29:42.033Z,84.25
2022-12-31T03:32:08.300Z,84.17
2022-12-31T03:34:34.584Z,84.09
2022-12-31T03:37:00.843Z,83.73
2022-12-31T03:39:27.126Z,83.43
2022-12-31T03:41:53.414Z,82.79
2022-12-31T03:44:19.795Z,82.78
2022-12-31T03:46:46.126Z,82.71
2022-12-31T03:49:12.452Z,82.39
2022-12-31T03:51:38.829Z,82.24
2022-12-31T03:54:05.123Z,81.97
2022-12-31T03:56:31.342Z,82.18
2022-12-31T03:58:57.761Z,81.98
2022-12-31T04:01:24.867Z,81.72
2022-12-31T04:03:51.337Z,81.74
2022-12-31T04:06:17.684Z,81.80
2022-12-31T04:08:43.911Z,81.62
2022-12-31T04:11:10.148Z,81.38
2022-12-31T04:13:36.361Z,81.36
2022-12-31T04:16:02.713Z,81.45
2022-12-31T04:18:29.164Z,81.31
2022-12-31T04:21:01.620Z,81.18
2022-12-31T04:23:27.988Z,80.97
2022-12-31T04:25:54.313Z,81.11
2022-12-31T04:28:20.546Z,80.90
2022-12-31T04:30:46.767Z,80.96
2022-12-31T04:33:13.047Z,81.02
2022-12-31T04:35:39.285Z,80.95
2022-12-31T04:38:05.850Z,80.86
2022-12-31T04:40:32.072Z,80.72
2022-12-31T04:42:58.348Z,80.79
2022-12-31T04:45:24.811Z,80.50
2022-12-31T04:47:51.152Z,80.58
2022-12-31T04:50:17.460Z,80.53
2022-12-31T04:52:44.130Z,80.25
2022-12-31T04:55:10.947Z,80.44
2022-12-31T04:57:37.219Z,80.20
2022-12-31T05:00:03.834Z,80.24
2022-12-31T05:02:30.300Z,80.24
2022-12-31T05:04:56.710Z,80.16
2022-12-31T05:07:23.139Z,80.32
2022-12-31T05:09:51.047Z,80.38
2022-12-31T05:12:17.315Z,80.34
2022-12-31T05:14:43.635Z,80.40
2022-12-31T05:17:09.920Z,80.23
2022-12-31T05:19:36.217Z,80.26
2022-12-31T05:22:21.023Z,80.29
2022-12-31T05:24:47.273Z,80.22
2022-12-31T05:27:14.332Z,80.14
2022-12-31T05:29:40.559Z,80.17
2022-12-31T05:32:06.877Z,80.17
2022-12-31T05:34:33.244Z,80.13
2022-12-31T05:36:59.464Z,80.42
2022-12-31T05:39:25.880Z,80.62
2022-12-31T05:41:52.201Z,80.53
2022-12-31T05:44:18.425Z,80.57
2022-12-31T05:46:46.267Z,80.66
2022-12-31T05:49:12.545Z,80.96
2022-12-31T05:51:38.882Z,80.78
2022-12-31T05:54:05.280Z,80.96
2022-12-31T05:56:31.653Z,80.98
2022-12-31T05:58:57.878Z,81.45
2022-12-31T06:01:24.147Z,81.31
2022-12-31T06:03:50.460Z,81.28
2022-12-31T06:06:16.783Z,81.48
2022-12-31T06:08:43.208Z,81.47
2022-12-31T06:11:09.518Z,81.64
2022-12-31T06:13:35.830Z,81.77
2022-12-31T06:16:08.805Z,81.58
2022-12-31T06:18:35.180Z,81.94
2022-12-31T06:21:03.416Z,82.02
2022-12-31T06:23:30.158Z,82.11
2022-12-31T06:25:56.407Z,82.49
2022-12-31T06:28:22.622Z,82.43
2022-12-31T06:30:48.905Z,82.57
2022-12-31T06:33:15.249Z,82.57
2022-12-31T06:35:41.608Z,82.50
2022-12-31T06:38:07.865Z,82.65
2022-12-31T06:40:36.901Z,82.52
2022-12-31T06:43:03.127Z,82.52
2022-12-31T06:45:29.513Z,82.43
2022-12-31T06:47:55.798Z,82.33
2022-12-31T06:50:22.043Z,82.32
2022-12-31T06:52:48.294Z,82.11
2022-12-31T06:55:15.122Z,82.13
2022-12-31T06:57:41.815Z,82.07
2022-12-31T07:00:10.413Z,82.06
2022-12-31T07:03:02.326Z,82.20
2022-12-31T07:06:13.177Z,82.03
2022-12-31T07:08:52.958Z,82.07
2022-12-31T07:11:31.559Z,81.96
2022-12-31T07:14:16.045Z,82.04
2022-12-31T07:17:22.307Z,81.88
2022-12-31T07:20:13.069Z,81.94
2022-12-31T07:22:40.484Z,81.96
2022-12-31T07:25:12.237Z,82.08
2022-12-31T07:27:53.849Z,81.83
2022-12-31T07:30:23.887Z,81.85
2022-12-31T07:33:06.695Z,81.97
2022-12-31T07:35:35.759Z,81.84
2022-12-31T07:38:27.655Z,81.74
2022-12-31T07:40:54.099Z,81.71
2022-12-31T07:43:42.128Z,81.35
2022-12-31T07:46:17.216Z,81.56
2022-12-31T07:48:43.785Z,81.51
2022-12-31T07:51:11.056Z,81.56
2022-12-31T07:53:38.990Z,81.35
2022-12-31T07:56:08.042Z,81.26
2022-12-31T07:58:39.116Z,81.33
2022-12-31T08:01:12.427Z,81.38
2022-12-31T08:04:04.314Z,81.07
2022-12-31T08:06:45.476Z,81.14
2022-12-31T08:09:25.124Z,81.12
2022-12-31T08:12:00.795Z,81.13
2022-12-31T08:14:28.107Z,81.19
2022-12-31T08:16:55.898Z,81.06
2022-12-31T08:19:25.921Z,80.97
2022-12-31T08:22:20.327Z,80.60
2022-12-31T08:25:11.610Z,80.88
2022-12-31T08:27:52.511Z,80.70
2022-12-31T08:30:20.691Z,80.40
2022-12-31T08:33:32.328Z,80.43
2022-12-31T08:36:10.035Z,80.57
2022-12-31T08:38:57.329Z,80.53
2022-12-31T08:41:43.613Z,80.06
2022-12-31T08:44:21.872Z,79.95
2022-12-31T08:47:02.489Z,79.65
2022-12-31T08:49:31.320Z,79.26
2022-12-31T08:51:59.047Z,79.36
2022-12-31T08:54:25.816Z,79.29
2022-12-31T08:56:52.142Z,79.18
2022-12-31T08:59:28.755Z,79.03
2022-12-31T09:02:08.992Z,78.71
2022-12-31T09:05:09.096Z,78.41
2022-12-31T09:07:39.063Z,78.50
2022-12-31T09:10:17.875Z,77.96
2022-12-31T09:13:19.375Z,77.91
2022-12-31T09:16:17.864Z,77.99
2022-12-31T09:18:44.311Z,77.61
2022-12-31T09:21:13.324Z,77.40
2022-12-31T09:23:40.343Z,77.61
2022-12-31T09:26:17.688Z,77.73
2022-12-31T09:28:46.566Z,77.42
2022-12-31T09:31:17.857Z,77.93
2022-12-31T09:33:56.955Z,77.61
2022-12-31T09:36:34.803Z,77.76
2022-12-31T09:39:29.894Z,77.83
2022-12-31T09:42:15.002Z,77.70
2022-12-31T09:44:59.933Z,77.62
2022-12-31T09:47:35.061Z,77.81
2022-12-31T09:50:28.064Z,77.61
2022-12-31T09:53:18.371Z,77.56
2022-12-31T09:56:21.698Z,77.57
2022-12-31T09:59:14.355Z,77.64
2022-12-31T10:02:15.465Z,77.66
2022-12-31T10:04:53.339Z,77.72
2022-12-31T10:07:51.995Z,77.35
2022-12-31T10:10:23.698Z,76.93
2022-12-31T10:13:23.114Z,76.98
2022-12-31T10:16:28.506Z,76.73
2022-12-31T10:19:29.050Z,76.51
2022-12-31T10:22:23.301Z,76.18
2022-12-31T10:25:08.133Z,75.95
2022-12-31T10:27:48.397Z,75.60
2022-12-31T10:30:17.940Z,75.43
2022-12-31T10:33:12.037Z,75.36
2022-12-31T10:36:01.971Z,74.90
2022-12-31T10:38:33.009Z,74.83
2022-12-31T10:41:30.946Z,74.61
2022-12-31T10:44:42.296Z,74.52
2022-12-31T10:47:19.094Z,74.81
2022-12-31T10:50:14.950Z,74.82
2022-12-31T10:53:07.316Z,74.82
2022-12-31T10:55:53.529Z,74.16
2022-12-31T10:58:48.018Z,74.00
2022-12-31T11:01:27.471Z,73.86
2022-12-31T11:03:53.814Z,73.73
2022-12-31T11:06:22.881Z,73.54
2022-12-31T11:09:23.363Z,73.33
2022-12-31T11:12:08.490Z,73.42
2022-12-31T11:14:42.444Z,73.47
2022-12-31T11:17:14.822Z,73.44
2022-12-31T11:19:59.685Z,73.26
2022-12-31T11:22:48.883Z,73.31
2022-12-31T11:25:22.168Z,73.36
2022-12-31T11:28:14.435Z,73.42
2022-12-31T11:31:06.027Z,73.38
2022-12-31T11:33:59.735Z,73.42
2022-12-31T11:36:38.974Z,73.08
2022-12-31T11:39:38.050Z,73.38
2022-12-31T11:42:20.656Z,73.39
2022-12-31T11:44:56.561Z,73.03
2022-12-31T11:47:28.900Z,72.95
2022-12-31T11:50:17.282Z,72.92
2022-12-31T11:53:38.044Z,72.85
2022-12-31T11:56:09.285Z,72.81
2022-12-31T11:58:35.588Z,72.80
2022-12-31T12:01:12.963Z,72.89
2022-12-31T12:03:46.739Z,72.99
2022-12-31T12:06:19.375Z,73.20
2022-12-31T12:08:46.096Z,73.14
2022-12-31T12:11:25.686Z,73.10
2022-12-31T12:13:52.222Z,72.88
2022-12-31T12:16:21.168Z,73.31
2022-12-31T12:19:00.847Z,73.17
2022-12-31T12:21:28.061Z,73.46
2022-12-31T12:24:03.943Z,73.65
2022-12-31T12:26:36.457Z,74.18
2022-12-31T12:29:20.359Z,74.65
2022-12-31T12:31:57.010Z,75.66
2022-12-31T12:34:27.728Z,76.35
2022-12-31T12:36:54.297Z,76.65
2022-12-31T12:39:23.832Z,76.94
2022-12-31T12:42:15.124Z,77.34
2022-12-31T12:44:42.010Z,77.64
2022-12-31T12:47:16.420Z,77.70
2022-12-31T12:49:48.923Z,77.89
2022-12-31T12:52:15.105Z,78.44
2022-12-31T12:54:56.594Z,78.88
2022-12-31T12:57:58.157Z,79.07
2022-12-31T13:01:04.493Z,79.19
2022-12-31T13:03:33.805Z,79.50
2022-12-31T13:06:32.751Z,79.54
2022-12-31T13:09:27.148Z,79.38
2022-12-31T13:12:08.499Z,79.32
2022-12-31T13:14:45.253Z,79.31
2022-12-31T13:17:54.063Z,79.31
2022-12-31T13:21:14.326Z,79.06
2022-12-31T13:23:59.746Z,78.77
2022-12-31T13:26:49.802Z,78.72
2022-12-31T13:29:23.393Z,78.50
2022-12-31T13:31:52.180Z,78.24
2022-12-31T13:34:25.095Z,78.17
2022-12-31T13:36:53.649Z,78.22
2022-12-31T13:39:35.559Z,78.08
2022-12-31T13:42:16.176Z,78.07
2022-12-31T13:44:58.563Z,77.99
2022-12-31T13:47:27.997Z,77.81
2022-12-31T13:49:58.317Z,77.71
2022-12-31T13:52:47.983Z,77.44
2022-12-31T13:55:29.148Z,77.12
2022-12-31T13:58:17.895Z,76.99
2022-12-31T14:00:50.561Z,76.94
2022-12-31T14:03:21.180Z,76.92
2022-12-31T14:08:52.912Z,76.59
2022-12-31T14:11:31.318Z,76.30
2022-12-31T14:14:23.845Z,76.20
2022-12-31T14:16:55.938Z,76.32
2022-12-31T14:19:41.047Z,76.15
2022-12-31T14:22:48.056Z,76.09
2022-12-31T14:25:34.370Z,75.96
2022-12-31T14:28:04.364Z,75.87
2022-12-31T14:30:40.124Z,75.75
2022-12-31T14:33:16.907Z,75.42
2022-12-31T14:36:24.392Z,75.22
2022-12-31T14:39:17.963Z,75.22
2022-12-31T14:42:08.049Z,75.24
2022-12-31T14:45:12.892Z,75.08
2022-12-31T14:47:53.841Z,74.89
2022-12-31T14:50:26.266Z,74.97
2022-12-31T14:53:24.776Z,74.95
2022-12-31T14:56:00.020Z,74.80
2022-12-31T14:58:34.080Z,74.71
2022-12-31T15:01:06.472Z,74.61
2022-12-31T15:03:40.107Z,74.66
2022-12-31T15:06:38.246Z,74.74
2022-12-31T15:09:24.685Z,74.41
2022-12-31T15:12:01.265Z,74.40
2022-12-31T15:14:56.892Z,74.46
2022-12-31T15:17:33.482Z,74.56
2022-12-31T15:20:17.422Z,74.37
2022-12-31T15:22:51.055Z,74.45
2022-12-31T15:25:24.389Z,74.45
2022-12-31T15:27:53.221Z,74.48
2022-12-31T15:30:32.735Z,74.24
2022-12-31T15:33:05.165Z,74.25
2022-12-31T15:35:46.252Z,74.23
2022-12-31T15:38:13.844Z,74.28
2022-12-31T15:40:50.425Z,74.35
2022-12-31T15:43:35.293Z,74.61
2022-12-31T15:46:09.775Z,74.59
2022-12-31T15:48:50.268Z,74.49
2022-12-31T15:51:29.561Z,74.51
2022-12-31T15:54:00.722Z,74.31
2022-12-31T15:56:33.863Z,74.26
2022-12-31T15:59:06.411Z,74.09
2022-12-31T16:01:36.392Z,74.06
2022-12-31T16:04:16.383Z,73.95
2022-12-31T16:06:50.718Z,73.98
2022-12-31T16:09:29.075Z,74.21
2022-12-31T16:11:59.104Z,74.10
2022-12-31T16:14:36.346Z,74.03
2022-12-31T16:17:05.032Z,73.93
2022-12-31T16:19:45.655Z,73.63
2022-12-31T16:22:17.034Z,73.37
2022-12-31T16:25:19.363Z,73.36
2022-12-31T16:27:35.289Z,73.46
2022-12-31T16:30:07.535Z,73.18
2022-12-31T16:32:39.072Z,72.88
2022-12-31T16:35:25.553Z,73.03
2022-12-31T16:38:08.264Z,72.99
2022-12-31T16:40:35.947Z,73.03
2022-12-31T16:43:04.026Z,73.27
2022-12-31T16:45:36.812Z,73.10
2022-12-31T16:48:17.657Z,73.05
2022-12-31T16:50:52.297Z,72.84
2022-12-31T16:53:24.779Z,72.70
2022-12-31T16:56:01.133Z,72.70
2022-12-31T16:58:37.193Z,72.57
2022-12-31T17:01:18.900Z,72.72
2022-12-31T17:03:53.513Z,72.70
2022-12-31T17:09:15.617Z,72.84
2022-12-31T17:12:09.942Z,72.62
2022-12-31T17:14:48.925Z,72.59
2022-12-31T17:17:25.500Z,72.80
2022-12-31T17:19:58.184Z,72.90
2022-12-31T17:22:36.439Z,73.14
2022-12-31T17:25:09.477Z,73.34
2022-12-31T17:27:37.454Z,73.46
2022-12-31T17:30:20.081Z,73.69
2022-12-31T17:32:50.890Z,73.86
2022-12-31T17:35:27.804Z,73.95
2022-12-31T17:37:55.517Z,73.94
2022-12-31T17:40:50.867Z,74.09
2022-12-31T17:43:21.677Z,74.08
2022-12-31T17:45:54.538Z,74.16
2022-12-31T17:48:24.415Z,74.44
2022-12-31T17:50:57.673Z,74.32
2022-12-31T17:53:25.902Z,74.36
2022-12-31T17:55:56.789Z,74.53
2022-12-31T17:58:42.241Z,74.72
2022-12-31T18:01:12.314Z,74.80
2022-12-31T18:03:40.061Z,74.75
2022-12-31T18:06:16.082Z,74.93
2022-12-31T18:08:44.154Z,74.70
2022-12-31T18:11:23.674Z,74.79
2022-12-31T18:13:53.093Z,74.74
2022-12-31T18:16:20.719Z,74.73
2022-12-31T18:18:48.505Z,74.83
2022-12-31T18:21:29.210Z,74.75
2022-12-31T18:26:24.738Z,74.44
2022-12-31T18:28:52.893Z,74.26
2022-12-31T18:31:28.607Z,74.26
2022-12-31T18:33:58.277Z,74.31
2022-12-31T18:36:27.658Z,74.45
2022-12-31T18:38:55.488Z,74.39
2022-12-31T18:41:26.893Z,74.39
2022-12-31T18:43:55.096Z,74.39
2022-12-31T18:46:24.619Z,74.27
2022-12-31T18:48:52.506Z,74.20
2022-12-31T18:51:31.116Z,74.10
2022-12-31T18:54:04.608Z,74.18
2022-12-31T18:56:32.295Z,74.15
2022-12-31T18:59:00.208Z,73.90
2022-12-31T19:01:33.449Z,73.83
2022-12-31T19:04:04.149Z,73.68
2022-12-31T19:06:31.792Z,73.73
2022-12-31T19:09:01.197Z,73.86
2022-12-31T19:11:29.201Z,73.70
2022-12-31T19:13:56.915Z,73.92
2022-12-31T19:16:25.082Z,73.64
2022-12-31T19:18:52.865Z,73.59
2022-12-31T19:21:23.742Z,73.61
2022-12-31T19:23:51.594Z,73.53
2022-12-31T19:26:22.240Z,73.33
2022-12-31T19:28:51.140Z,73.14
2022-12-31T19:31:18.997Z,73.11
2022-12-31T19:33:47.220Z,73.36
2022-12-31T19:36:20.184Z,73.24
2022-12-31T19:38:47.858Z,73.40
2022-12-31T19:41:18.924Z,73.35
2022-12-31T19:43:47.836Z,73.24
2022-12-31T19:46:17.793Z,73.50
2022-12-31T19:48:46.340Z,73.44
2022-12-31T19:51:21.706Z,73.27
2022-12-31T19:53:49.805Z,73.30
2022-12-31T19:56:19.996Z,73.26
2022-12-31T19:58:47.628Z,73.31
2022-12-31T20:01:21.809Z,73.29
2022-12-31T20:03:50.237Z,73.62
2022-12-31T20:06:19.095Z,73.64
2022-12-31T20:08:46.753Z,73.80
2022-12-31T20:11:17.398Z,73.77
2022-12-31T20:13:46.499Z,74.02
2022-12-31T20:16:19.504Z,73.97
2022-12-31T20:18:47.839Z,73.90
2022-12-31T20:21:21.431Z,73.86
2022-12-31T20:23:50.625Z,73.79
2022-12-31T20:26:19.193Z,73.98
2022-12-31T20:28:46.867Z,73.87
2022-12-31T20:31:18.133Z,73.94
2022-12-31T20:33:45.965Z,73.92
2022-12-31T20:36:15.465Z,74.28
2022-12-31T20:38:43.990Z,74.28
2022-12-31T20:41:13.457Z,74.30
2022-12-31T20:43:41.605Z,74.40
2022-12-31T20:46:15.611Z,74.33
2022-12-31T20:48:44.950Z,74.24
2022-12-31T20:51:14.266Z,74.28
2022-12-31T20:53:48.860Z,74.05
2022-12-31T20:56:17.185Z,74.08
2022-12-31T20:58:45.004Z,73.75
2022-12-31T21:01:13.807Z,73.73
2022-12-31T21:09:21.551Z,73.56
2022-12-31T21:12:08.005Z,73.33
2022-12-31T21:14:38.546Z,73.08
2022-12-31T21:17:10.514Z,73.10
2022-12-31T21:19:38.194Z,72.92
2022-12-31T21:22:05.869Z,73.08
2022-12-31T21:24:33.488Z,72.90
2022-12-31T21:27:01.153Z,72.86
2022-12-31T21:29:32.769Z,73.16
2022-12-31T21:32:02.269Z,72.92
2022-12-31T21:34:30.017Z,72.86
2022-12-31T21:36:58.059Z,72.84
2022-12-31T21:39:25.740Z,72.82
2022-12-31T21:41:53.433Z,72.84
2022-12-31T21:44:25.875Z,73.11
2022-12-31T21:47:33.175Z,73.26
2022-12-31T21:49:44.465Z,73.40
2022-12-31T21:52:27.837Z,73.33
2022-12-31T21:55:16.491Z,73.22
2022-12-31T21:58:24.346Z,73.15
2022-12-31T22:00:52.801Z,73.18
2022-12-31T22:03:29.615Z,72.64
2022-12-31T22:09:00.530Z,72.70
2022-12-31T22:11:28.530Z,72.55
2022-12-31T22:13:56.318Z,72.47
2022-12-31T22:16:24.054Z,72.59
2022-12-31T22:18:55.030Z,72.52
2022-12-31T22:21:24.490Z,72.76
2022-12-31T22:23:54.848Z,72.82
2022-12-31T22:26:26.043Z,72.95
2022-12-31T22:28:59.001Z,72.96
2022-12-31T22:31:32.752Z,72.93
2022-12-31T22:34:00.838Z,73.05
2022-12-31T22:36:28.574Z,73.18
2022-12-31T22:38:58.070Z,73.24
2022-12-31T22:41:27.159Z,73.47
2022-12-31T22:44:02.994Z,73.41
2022-12-31T22:46:33.307Z,73.72
2022-12-31T22:49:02.728Z,73.78
2022-12-31T22:51:56.902Z,73.86
2022-12-31T22:54:18.933Z,74.05
2022-12-31T22:56:46.825Z,74.14
2022-12-31T22:59:14.642Z,74.31
2022-12-31T23:01:42.485Z,74.18
2022-12-31T23:04:10.237Z,74.16
2022-12-31T23:06:43.540Z,74.26
2022-12-31T23:09:31.549Z,74.31
2022-12-31T23:11:59.816Z,74.37
2022-12-31T23:14:46.153Z,74.50
2022-12-31T23:17:42.426Z,74.35
2022-12-31T23:20:39.151Z,74.50
2022-12-31T23:23:09.057Z,74.52
2022-12-31T23:25:46.058Z,74.51
2022-12-31T23:28:16.955Z,74.49
2022-12-31T23:30:44.814Z,74.39
2022-12-31T23:33:16.017Z,74.39
2022-12-31T23:35:44.205Z,74.59
2022-12-31T23:38:12.585Z,74.74
2022-12-31T23:40:40.183Z,74.65
2022-12-31T23:43:21.107Z,74.83
2022-12-31T23:45:52.661Z,74.72
2022-12-31T23:48:20.703Z,74.66
2022-12-31T23:50:53.404Z,74.60
2022-12-31T23:53:24.752Z,74.39
2022-12-31T23:55:53.331Z,74.53
2022-12-31T23:58:21.782Z,74.22
